createdAt,value
2022-11-06T00:00:59.148Z,63.58
2022-11-06T00:03:27.525Z,63.67
2022-11-06T00:06:13.351Z,63.75
2022-11-06T00:08:43.095Z,64.26
2022-11-06T00:11:13.484Z,64.55
2022-11-06T00:13:43.081Z,64.62
2022-11-06T00:16:14.048Z,64.23
2022-11-06T00:18:43.409Z,64.90
2022-11-06T00:21:15.475Z,64.81
2022-11-06T00:23:46.014Z,65.31
2022-11-06T00:26:20.063Z,65.29
2022-11-06T00:28:50.072Z,65.39
2022-11-06T00:31:20.595Z,65.35
2022-11-06T00:33:49.308Z,65.56
2022-11-06T00:36:20.734Z,66.01
2022-11-06T00:38:53.035Z,65.72
2022-11-06T00:41:21.490Z,65.86
2022-11-06T00:43:51.059Z,66.05
2022-11-06T00:46:20.205Z,65.89
2022-11-06T00:48:48.629Z,65.56
2022-11-06T00:51:19.114Z,64.78
2022-11-06T00:53:48.041Z,64.92
2022-11-06T00:56:19.564Z,65.07
2022-11-06T00:58:48.880Z,65.01
2022-11-06T01:01:18.966Z,64.92
2022-11-06T01:03:49.939Z,65.03
2022-11-06T01:06:20.249Z,65.08
2022-11-06T01:08:49.973Z,65.04
2022-11-06T01:11:22.116Z,65.43
2022-11-06T01:13:52.273Z,65.64
2022-11-06T01:16:20.906Z,66.02
2022-11-06T01:18:49.638Z,66.08
2022-11-06T01:21:19.689Z,66.54
2022-11-06T01:23:48.843Z,66.10
2022-11-06T01:26:36.831Z,66.41
2022-11-06T01:29:08.252Z,67.12
2022-11-06T01:31:37.060Z,66.58
2022-11-06T01:34:06.204Z,66.14
2022-11-06T01:36:34.656Z,66.61
2022-11-06T01:39:06.397Z,66.45
2022-11-06T01:41:40.188Z,66.67
2022-11-06T01:44:47.272Z,67.32
2022-11-06T01:47:24.454Z,67.71
2022-11-06T01:49:56.439Z,67.51
2022-11-06T01:52:26.772Z,67.15
2022-11-06T01:54:58.204Z,67.66
2022-11-06T01:57:27.996Z,67.17
2022-11-06T01:59:56.951Z,67.41
2022-11-06T02:02:25.909Z,67.25
2022-11-06T02:04:54.217Z,67.17
2022-11-06T02:07:22.684Z,67.78
2022-11-06T02:09:50.895Z,67.18
2022-11-06T02:12:33.400Z,67.30
2022-11-06T02:15:12.203Z,67.33
2022-11-06T02:17:53.416Z,67.14
2022-11-06T02:20:29.007Z,66.99
2022-11-06T02:23:11.097Z,66.52
2022-11-06T02:25:50.025Z,66.56
2022-11-06T02:28:26.236Z,66.03
2022-11-06T02:30:59.663Z,65.85
2022-11-06T02:33:31.633Z,65.82
2022-11-06T02:36:02.964Z,66.23
2022-11-06T02:38:37.503Z,66.57
2022-11-06T02:41:13.630Z,66.72
2022-11-06T02:43:46.987Z,66.73
2022-11-06T02:46:19.557Z,66.64
2022-11-06T02:48:52.143Z,67.05
2022-11-06T02:51:24.222Z,66.55
2022-11-06T02:53:55.660Z,66.94
2022-11-06T02:56:26.784Z,67.16
2022-11-06T02:58:59.634Z,67.65
2022-11-06T03:01:32.147Z,66.93
2022-11-06T03:04:04.752Z,67.35
2022-11-06T03:06:37.365Z,68.27
2022-11-06T03:09:11.210Z,68.20
2022-11-06T03:11:40.083Z,68.29
2022-11-06T03:14:17.100Z,68.00
2022-11-06T03:16:54.260Z,68.22
2022-11-06T03:19:28.780Z,67.61
2022-11-06T03:22:05.344Z,67.75
2022-11-06T03:24:41.129Z,68.69
2022-11-06T03:27:14.737Z,68.79
2022-11-06T03:29:48.250Z,69.42
2022-11-06T03:32:21.887Z,69.05
2022-11-06T03:34:55.929Z,69.04
2022-11-06T03:37:30.838Z,69.58
2022-11-06T03:40:04.331Z,69.08
2022-11-06T03:42:33.204Z,69.80
2022-11-06T03:45:08.069Z,69.42
2022-11-06T03:47:42.181Z,69.88
2022-11-06T03:50:15.054Z,69.42
2022-11-06T03:52:50.652Z,68.83
2022-11-06T03:55:23.446Z,68.80
2022-11-06T03:57:57.305Z,69.00
2022-11-06T04:00:27.103Z,68.16
2022-11-06T04:03:05.127Z,67.79
2022-11-06T04:05:37.536Z,67.80
2022-11-06T04:08:26.164Z,67.62
2022-11-06T04:11:18.162Z,67.12
2022-11-06T04:14:01.946Z,67.73
2022-11-06T04:16:35.899Z,66.99
2022-11-06T04:19:04.630Z,66.98
2022-11-06T04:21:42.569Z,66.54
2022-11-06T04:24:40.538Z,66.98
2022-11-06T04:27:21.069Z,66.75
2022-11-06T04:30:08.872Z,66.98
2022-11-06T04:33:00.756Z,66.69
2022-11-06T04:35:36.116Z,66.57
2022-11-06T04:38:09.931Z,66.84
2022-11-06T04:40:48.448Z,66.49
2022-11-06T04:43:26.173Z,66.85
2022-11-06T04:45:57.167Z,67.39
2022-11-06T04:48:27.338Z,67.20
2022-11-06T04:51:00.057Z,67.20
2022-11-06T04:53:31.196Z,66.77
2022-11-06T04:56:07.412Z,67.28
2022-11-06T04:58:35.670Z,68.08
2022-11-06T05:01:03.998Z,68.06
2022-11-06T05:03:33.717Z,67.34
2022-11-06T05:06:03.098Z,67.23
2022-11-06T05:08:31.726Z,67.51
2022-11-06T05:11:00.028Z,67.06
2022-11-06T05:13:28.333Z,67.17
2022-11-06T05:15:57.729Z,67.82
2022-11-06T05:18:27.028Z,67.31
2022-11-06T05:21:14.589Z,67.64
2022-11-06T05:23:43.140Z,67.19
2022-11-06T05:26:12.156Z,67.60
2022-11-06T05:28:40.669Z,67.60
2022-11-06T05:31:10.989Z,67.48
2022-11-06T05:33:39.406Z,66.80
2022-11-06T05:36:09.974Z,67.09
2022-11-06T05:38:38.288Z,67.69
2022-11-06T05:41:07.547Z,67.93
2022-11-06T05:43:35.938Z,68.12
2022-11-06T05:46:04.602Z,67.37
2022-11-06T05:48:32.979Z,67.79
2022-11-06T05:51:02.048Z,68.36
2022-11-06T05:53:33.624Z,68.36
2022-11-06T05:56:02.303Z,68.50
2022-11-06T05:58:31.053Z,68.85
2022-11-06T06:00:59.917Z,68.33
2022-11-06T06:03:28.648Z,68.38
2022-11-06T06:05:57.006Z,68.47
2022-11-06T06:08:25.321Z,69.27
2022-11-06T06:10:55.856Z,69.48
2022-11-06T06:13:24.305Z,68.68
2022-11-06T06:15:52.576Z,69.05
2022-11-06T06:18:20.798Z,69.14
2022-11-06T06:20:49.075Z,68.96
2022-11-06T06:23:17.323Z,67.92
2022-11-06T06:25:45.582Z,67.78
2022-11-06T06:28:15.583Z,68.55
2022-11-06T06:30:44.091Z,68.62
2022-11-06T06:33:12.379Z,68.22
2022-11-06T06:35:40.632Z,67.96
2022-11-06T06:38:09.002Z,68.41
2022-11-06T06:40:37.303Z,68.69
2022-11-06T06:43:05.594Z,69.06
2022-11-06T06:45:35.278Z,68.91
2022-11-06T06:48:04.628Z,68.41
2022-11-06T06:50:33.317Z,68.74
2022-11-06T06:53:01.953Z,68.57
2022-11-06T06:55:30.535Z,68.77
2022-11-06T06:57:59.314Z,68.78
2022-11-06T07:00:28.406Z,68.56
2022-11-06T07:02:58.219Z,68.73
2022-11-06T07:05:26.794Z,68.37
2022-11-06T07:07:54.982Z,69.09
2022-11-06T07:10:23.230Z,69.21
2022-11-06T07:12:51.437Z,69.03
2022-11-06T07:15:19.798Z,68.98
2022-11-06T07:17:48.119Z,68.20
2022-11-06T07:20:17.998Z,68.91
2022-11-06T07:22:46.296Z,69.07
2022-11-06T07:25:14.569Z,68.78
2022-11-06T07:27:42.814Z,68.86
2022-11-06T07:30:12.424Z,68.98
2022-11-06T07:32:41.652Z,68.81
2022-11-06T07:35:11.028Z,68.25
2022-11-06T07:37:40.756Z,67.79
2022-11-06T07:40:10.871Z,67.53
2022-11-06T07:42:43.330Z,67.06
2022-11-06T07:45:16.318Z,66.71
2022-11-06T07:47:44.596Z,65.99
2022-11-06T07:50:12.888Z,65.56
2022-11-06T07:52:42.708Z,64.52
2022-11-06T07:55:13.056Z,62.89
2022-11-06T07:57:41.552Z,62.40
2022-11-06T08:00:11.497Z,61.33
2022-11-06T08:02:44.247Z,60.33
2022-11-06T08:05:12.691Z,59.68
2022-11-06T08:07:42.436Z,60.32
2022-11-06T08:10:11.142Z,60.06
2022-11-06T08:12:39.424Z,60.19
2022-11-06T08:15:08.557Z,59.15
2022-11-06T08:17:37.640Z,59.06
2022-11-06T08:20:06.943Z,58.74
2022-11-06T08:22:35.286Z,58.58
2022-11-06T08:25:05.399Z,58.79
2022-11-06T08:27:33.770Z,58.34
2022-11-06T08:30:02.029Z,58.01
2022-11-06T08:32:30.528Z,58.45
2022-11-06T08:34:58.749Z,59.01
2022-11-06T08:37:27.126Z,58.68
2022-11-06T08:39:55.404Z,58.75
2022-11-06T08:42:25.070Z,58.61
2022-11-06T08:44:53.323Z,58.37
2022-11-06T08:47:21.638Z,57.53
2022-11-06T08:49:49.848Z,57.65
2022-11-06T08:52:18.125Z,57.94
2022-11-06T08:54:46.396Z,55.63
2022-11-06T08:57:15.051Z,55.80
2022-11-06T08:59:44.730Z,55.67
2022-11-06T09:02:14.968Z,55.17
2022-11-06T09:04:43.301Z,55.17
2022-11-06T09:07:11.774Z,55.10
2022-11-06T09:09:40.858Z,54.82
2022-11-06T09:12:09.508Z,53.98
2022-11-06T09:14:37.842Z,53.96
2022-11-06T09:17:07.654Z,54.10
2022-11-06T09:19:36.964Z,53.53
2022-11-06T09:22:05.259Z,53.28
2022-11-06T09:24:57.665Z,52.81
2022-11-06T09:27:21.906Z,51.37
2022-11-06T09:29:50.139Z,50.46
2022-11-06T09:32:19.852Z,50.52
2022-11-06T09:34:48.705Z,50.08
2022-11-06T09:37:17.044Z,50.53
2022-11-06T09:39:45.732Z,49.91
2022-11-06T09:42:27.126Z,49.87
2022-11-06T09:45:04.758Z,50.72
2022-11-06T09:47:38.840Z,50.03
2022-11-06T09:50:13.746Z,49.33
2022-11-06T09:52:46.571Z,48.79
2022-11-06T09:55:22.700Z,49.17
2022-11-06T09:57:56.084Z,48.77
2022-11-06T10:00:24.791Z,47.65
2022-11-06T10:02:56.931Z,48.73
2022-11-06T10:05:28.564Z,48.13
2022-11-06T10:07:59.540Z,47.68
2022-11-06T10:10:32.778Z,47.45
2022-11-06T10:13:17.221Z,47.78
2022-11-06T10:15:52.104Z,48.44
2022-11-06T10:18:30.456Z,49.19
2022-11-06T10:21:09.414Z,49.45
2022-11-06T10:23:48.079Z,48.80
2022-11-06T10:26:18.836Z,48.77
2022-11-06T10:29:12.961Z,48.41
2022-11-06T10:31:53.508Z,48.63
2022-11-06T10:34:29.168Z,47.46
2022-11-06T10:37:02.423Z,47.70
2022-11-06T10:39:33.946Z,48.04
2022-11-06T10:42:07.523Z,48.03
2022-11-06T10:44:40.712Z,47.37
2022-11-06T10:47:18.398Z,48.24
2022-11-06T10:49:51.155Z,46.66
2022-11-06T10:52:48.124Z,47.09
2022-11-06T10:55:46.829Z,46.97
2022-11-06T10:58:17.444Z,45.90
2022-11-06T11:00:46.059Z,46.10
2022-11-06T11:03:25.640Z,46.42
2022-11-06T11:05:55.867Z,47.15
2022-11-06T11:08:38.534Z,46.61
2022-11-06T11:11:16.891Z,46.65
2022-11-06T11:13:46.998Z,46.77
2022-11-06T11:16:18.466Z,46.74
2022-11-06T11:18:47.453Z,46.12
2022-11-06T11:21:24.838Z,46.01
2022-11-06T11:24:14.346Z,45.67
2022-11-06T11:26:47.728Z,45.24
2022-11-06T11:29:18.388Z,45.42
2022-11-06T11:31:51.394Z,44.70
2022-11-06T11:34:22.837Z,44.59
2022-11-06T11:37:01.440Z,44.56
2022-11-06T11:39:33.653Z,44.22
2022-11-06T11:42:26.007Z,44.14
2022-11-06T11:45:14.064Z,44.08
2022-11-06T11:47:43.875Z,43.75
2022-11-06T11:50:32.854Z,43.69
2022-11-06T11:53:13.009Z,43.48
2022-11-06T11:55:45.087Z,43.82
2022-11-06T11:58:21.379Z,44.00
2022-11-06T12:00:55.429Z,43.84
2022-11-06T12:03:26.312Z,43.11
2022-11-06T12:05:55.873Z,43.23
2022-11-06T12:08:27.201Z,43.63
2022-11-06T12:11:04.069Z,43.01
2022-11-06T12:13:32.409Z,44.02
2022-11-06T12:16:03.382Z,43.34
2022-11-06T12:18:35.049Z,43.07
2022-11-06T12:21:07.206Z,42.65
2022-11-06T12:23:40.593Z,42.63
2022-11-06T12:26:26.250Z,42.67
2022-11-06T12:29:04.850Z,43.00
2022-11-06T12:31:40.729Z,42.64
2022-11-06T12:34:17.473Z,41.84
2022-11-06T12:37:00.152Z,41.11
2022-11-06T12:39:34.141Z,41.20
2022-11-06T12:42:05.481Z,40.33
2022-11-06T12:44:33.906Z,41.07
2022-11-06T12:47:09.873Z,41.30
2022-11-06T12:50:11.611Z,41.50
2022-11-06T12:52:55.117Z,41.11
2022-11-06T12:55:31.035Z,40.11
2022-11-06T12:58:16.171Z,40.43
2022-11-06T13:00:59.575Z,39.54
2022-11-06T13:03:43.245Z,39.63
2022-11-06T13:06:17.696Z,39.60
2022-11-06T13:08:55.001Z,40.42
2022-11-06T13:11:35.427Z,39.93
2022-11-06T13:14:18.014Z,39.48
2022-11-06T13:16:55.910Z,39.65
2022-11-06T13:19:32.317Z,39.07
2022-11-06T13:22:13.160Z,39.10
2022-11-06T13:24:48.289Z,38.96
2022-11-06T13:27:26.786Z,39.43
2022-11-06T13:30:03.801Z,39.64
2022-11-06T13:32:37.328Z,39.24
2022-11-06T13:35:07.007Z,39.56
2022-11-06T13:37:41.751Z,38.59
2022-11-06T13:40:22.950Z,38.44
2022-11-06T13:42:59.616Z,38.32
2022-11-06T13:45:29.574Z,37.68
2022-11-06T13:48:12.539Z,37.87
2022-11-06T13:50:48.832Z,37.99
2022-11-06T13:53:25.830Z,38.30
2022-11-06T13:56:05.785Z,37.81
2022-11-06T13:59:21.087Z,37.89
2022-11-06T14:02:04.857Z,36.82
2022-11-06T14:05:00.914Z,37.34
2022-11-06T14:07:32.102Z,36.79
2022-11-06T14:10:01.042Z,37.08
2022-11-06T14:12:29.712Z,36.03
2022-11-06T14:15:23.790Z,35.74
2022-11-06T14:17:57.390Z,35.86
2022-11-06T14:20:33.714Z,36.64
2022-11-06T14:23:36.531Z,37.10
2022-11-06T14:26:06.747Z,37.55
2022-11-06T14:28:37.035Z,37.05
2022-11-06T14:31:14.667Z,36.66
2022-11-06T14:34:02.969Z,36.81
2022-11-06T14:36:36.828Z,37.25
2022-11-06T14:39:11.624Z,37.72
2022-11-06T14:41:56.255Z,36.74
2022-11-06T14:44:35.324Z,36.98
2022-11-06T14:47:08.524Z,37.13
2022-11-06T14:49:42.240Z,37.45
2022-11-06T14:52:14.075Z,37.95
2022-11-06T14:54:52.200Z,38.37
2022-11-06T14:57:40.355Z,38.78
2022-11-06T15:00:13.328Z,38.91
2022-11-06T15:02:44.473Z,38.29
2022-11-06T15:05:19.445Z,39.35
2022-11-06T15:08:05.890Z,41.53
2022-11-06T15:10:53.605Z,41.47
2022-11-06T15:13:33.655Z,41.23
2022-11-06T15:16:14.454Z,41.00
2022-11-06T15:18:47.073Z,41.45
2022-11-06T15:21:23.908Z,41.28
2022-11-06T15:24:03.958Z,41.49
2022-11-06T15:26:37.708Z,41.78
2022-11-06T15:29:19.286Z,42.58
2022-11-06T15:31:50.733Z,44.50
2022-11-06T15:34:31.802Z,44.02
2022-11-06T15:37:12.807Z,44.59
2022-11-06T15:39:53.583Z,45.53
2022-11-06T15:42:29.146Z,46.11
2022-11-06T15:45:14.834Z,46.16
2022-11-06T15:47:54.854Z,46.48
2022-11-06T15:50:27.944Z,46.66
2022-11-06T15:53:23.771Z,47.17
2022-11-06T15:55:56.600Z,47.54
2022-11-06T15:58:31.051Z,47.76
2022-11-06T16:01:01.121Z,48.04
2022-11-06T16:03:32.353Z,48.90
2022-11-06T16:06:05.420Z,49.57
2022-11-06T16:08:34.494Z,50.19
2022-11-06T16:11:09.296Z,50.75
2022-11-06T16:13:41.272Z,51.17
2022-11-06T16:16:33.756Z,51.50
2022-11-06T16:19:04.294Z,52.32
2022-11-06T16:25:31.017Z,55.15
2022-11-06T16:28:03.569Z,55.95
2022-11-06T16:30:33.986Z,56.17
2022-11-06T16:33:04.161Z,56.74
2022-11-06T16:35:35.606Z,56.50
2022-11-06T16:38:41.729Z,56.38
2022-11-06T16:41:30.934Z,56.83
2022-11-06T16:44:30.821Z,56.73
2022-11-06T16:47:20.524Z,56.49
2022-11-06T16:49:54.596Z,56.29
2022-11-06T16:52:30.576Z,56.56
2022-11-06T16:55:06.822Z,57.19
2022-11-06T16:57:50.034Z,57.30
2022-11-06T17:00:34.301Z,57.80
2022-11-06T17:03:44.111Z,58.15
2022-11-06T17:06:33.365Z,58.36
2022-11-06T17:09:42.620Z,58.39
2022-11-06T17:12:24.461Z,58.00
2022-11-06T17:15:31.668Z,58.41
2022-11-06T17:18:08.416Z,58.82
2022-11-06T17:20:52.198Z,58.38
2022-11-06T17:23:31.071Z,58.61
2022-11-06T17:26:14.080Z,58.54
2022-11-06T17:29:12.317Z,59.06
2022-11-06T17:32:14.030Z,59.02
2022-11-06T17:38:24.288Z,60.23
2022-11-06T17:41:10.694Z,60.47
2022-11-06T17:44:32.513Z,60.08
2022-11-06T17:47:38.515Z,59.92
2022-11-06T17:55:26.019Z,60.92
2022-11-06T18:01:26.168Z,61.81
2022-11-06T18:04:13.409Z,62.18
2022-11-06T18:06:59.015Z,62.24
2022-11-06T18:09:49.033Z,62.16
2022-11-06T18:12:53.653Z,62.35
2022-11-06T18:15:43.058Z,63.20
2022-11-06T18:19:09.709Z,62.64
2022-11-06T18:22:45.786Z,62.53
2022-11-06T18:25:12.061Z,62.58
2022-11-06T18:27:51.468Z,62.49
2022-11-06T18:30:22.933Z,62.82
2022-11-06T18:33:08.380Z,62.80
2022-11-06T18:35:59.867Z,62.83
2022-11-06T18:38:59.956Z,63.00
2022-11-06T18:42:54.082Z,63.38
2022-11-06T18:45:38.602Z,64.09
2022-11-06T18:48:28.284Z,63.71
2022-11-06T18:50:56.672Z,64.62
2022-11-06T18:53:24.907Z,63.72
2022-11-06T18:55:54.634Z,64.18
2022-11-06T18:58:22.844Z,64.17
2022-11-06T19:00:51.113Z,63.91
2022-11-06T19:03:19.826Z,63.68
2022-11-06T19:05:48.703Z,63.22
2022-11-06T19:08:26.607Z,63.28
2022-11-06T19:11:08.520Z,63.67
2022-11-06T19:13:42.103Z,64.17
2022-11-06T19:16:20.270Z,63.68
2022-11-06T19:21:31.230Z,64.62
2022-11-06T19:24:04.648Z,64.58
2022-11-06T19:26:38.094Z,64.79
2022-11-06T19:29:11.733Z,64.53
2022-11-06T19:31:44.092Z,64.54
2022-11-06T19:34:16.939Z,64.08
2022-11-06T19:36:47.095Z,63.99
2022-11-06T19:39:27.852Z,64.66
2022-11-06T19:42:08.225Z,64.18
2022-11-06T19:44:46.453Z,64.70
2022-11-06T19:47:22.700Z,64.92
2022-11-06T19:50:06.608Z,64.99
2022-11-06T19:52:59.607Z,65.79
2022-11-06T19:55:53.219Z,64.86
2022-11-06T19:59:14.394Z,65.27
2022-11-06T20:01:55.956Z,65.70
2022-11-06T20:04:39.721Z,65.51
2022-11-06T20:07:24.870Z,66.17
2022-11-06T20:10:10.640Z,66.35
2022-11-06T20:12:44.942Z,65.97
2022-11-06T20:15:24.096Z,66.41
2022-11-06T20:17:59.524Z,66.17
2022-11-06T20:20:36.157Z,66.47
2022-11-06T20:23:09.222Z,66.12
2022-11-06T20:26:01.210Z,66.35
2022-11-06T20:28:36.855Z,66.27
2022-11-06T20:31:19.465Z,66.79
2022-11-06T20:33:54.745Z,66.13
2022-11-06T20:36:29.732Z,66.19
2022-11-06T20:39:06.572Z,66.59
2022-11-06T20:41:45.055Z,65.81
2022-11-06T20:44:17.181Z,67.08
2022-11-06T20:47:13.092Z,66.23
2022-11-06T20:50:27.572Z,66.62
2022-11-06T20:53:06.752Z,66.81
2022-11-06T20:55:35.147Z,67.15
2022-11-06T20:58:23.865Z,67.25
2022-11-06T21:01:24.556Z,66.48
2022-11-06T21:04:00.438Z,66.41
2022-11-06T21:06:33.900Z,67.10
2022-11-06T21:09:06.085Z,67.25
2022-11-06T21:11:35.517Z,67.06
2022-11-06T21:14:04.541Z,67.09
2022-11-06T21:16:36.169Z,66.26
2022-11-06T21:19:07.638Z,67.20
2022-11-06T21:21:38.621Z,66.13
2022-11-06T21:24:08.552Z,66.70
2022-11-06T21:26:39.509Z,66.55
2022-11-06T21:29:10.773Z,66.68
2022-11-06T21:31:47.594Z,67.32
2022-11-06T21:34:21.579Z,67.35
2022-11-06T21:36:51.704Z,67.30
2022-11-06T21:39:22.377Z,67.37
2022-11-06T21:41:52.347Z,67.50
2022-11-06T21:44:21.268Z,67.75
2022-11-06T21:46:49.737Z,68.01
2022-11-06T21:49:21.668Z,68.16
2022-11-06T21:51:49.991Z,68.37
2022-11-06T21:54:37.346Z,67.98
2022-11-06T21:57:05.706Z,68.34
2022-11-06T21:59:40.413Z,68.10
2022-11-06T22:02:10.925Z,68.17
2022-11-06T22:04:40.811Z,68.38
2022-11-06T22:07:09.295Z,68.41
2022-11-06T22:09:37.749Z,67.88
2022-11-06T22:12:06.874Z,67.66
2022-11-06T22:14:35.516Z,68.50
2022-11-06T22:17:03.942Z,68.17
2022-11-06T22:19:32.633Z,67.76
2022-11-06T22:22:02.431Z,67.72
2022-11-06T22:24:30.741Z,67.86
2022-11-06T22:26:59.145Z,68.51
2022-11-06T22:29:27.616Z,68.60
2022-11-06T22:31:56.045Z,68.67
2022-11-06T22:34:24.453Z,68.31
2022-11-06T22:36:52.840Z,69.18
2022-11-06T22:39:22.688Z,69.04
2022-11-06T22:41:51.050Z,68.91
2022-11-06T22:44:19.734Z,68.62
2022-11-06T22:46:54.092Z,68.27
2022-11-06T22:49:22.541Z,68.48
2022-11-06T22:51:50.984Z,68.31
2022-11-06T22:54:19.620Z,68.22
2022-11-06T22:56:49.573Z,68.23
2022-11-06T22:59:20.851Z,68.33
2022-11-06T23:01:49.484Z,68.56
2022-11-06T23:04:17.988Z,68.50
2022-11-06T23:06:46.886Z,69.21
2022-11-06T23:09:15.696Z,69.27
2022-11-06T23:11:46.007Z,68.57
2022-11-06T23:14:16.024Z,69.32
2022-11-06T23:17:01.175Z,69.25
2022-11-06T23:19:31.996Z,69.44
2022-11-06T23:22:17.769Z,69.12
2022-11-06T23:24:46.502Z,69.47
2022-11-06T23:27:15.834Z,69.75
2022-11-06T23:29:45.868Z,69.29
2022-11-06T23:32:14.782Z,69.17
2022-11-06T23:34:43.097Z,69.25
2022-11-06T23:37:11.567Z,69.32
2022-11-06T23:39:40.023Z,69.25
2022-11-06T23:42:08.461Z,69.39
2022-11-06T23:44:54.214Z,68.89
2022-11-06T23:47:24.048Z,69.22
2022-11-06T23:49:52.704Z,69.75
2022-11-06T23:52:21.473Z,69.74
2022-11-06T23:54:50.160Z,69.91
2022-11-06T23:57:18.726Z,69.82
2022-11-06T23:59:47.307Z,69.26
